Time;durP1;ratioP1;P1;durP2;ratioP2;P2;SDS_P1;SDS_P2;PMS_P1;PMS_P2;Temp;Humidity;BMP_temperature;BMP_pressure;BME280_temperature;BME280_humidity;BME280_pressure;Samples;Min_cycle;Max_cycle;Signal;HPM_P1;HPM_P2
2023/03/27 00:00:55;;;;;;;8.60;2.00;;;2.10;99.90;;;;;;7371573;19;20450;-69
2023/03/27 00:03:24;;;;;;;15.68;2.47;;;2.10;99.90;;;;;;7372884;19;20015;-69
2023/03/27 00:06:06;;;;;;;15.10;2.53;;;2.10;99.90;;;;;;7376232;19;20030;-66
2023/03/27 00:08:33;;;;;;;7.45;2.13;;;2.10;99.90;;;;;;7377154;19;20547;-66
2023/03/27 00:11:06;;;;;;;8.68;2.20;;;2.00;99.90;;;;;;7373501;19;20479;-67
2023/03/27 00:13:39;;;;;;;9.57;2.50;;;2.00;99.90;;;;;;7376244;19;20015;-67
2023/03/27 00:16:06;;;;;;;9.35;2.17;;;2.00;99.90;;;;;;7372746;19;20028;-67
2023/03/27 00:18:32;;;;;;;9.75;2.63;;;2.00;99.90;;;;;;7373225;19;20102;-66
2023/03/27 00:21:01;;;;;;;19.25;3.65;;;2.00;99.90;;;;;;7369990;19;21057;-67
2023/03/27 00:23:36;;;;;;;12.93;2.85;;;2.00;99.90;;;;;;7374577;19;20039;-67
2023/03/27 00:26:03;;;;;;;9.98;2.45;;;1.90;99.90;;;;;;7368937;19;20833;-67
2023/03/27 00:28:30;;;;;;;12.23;2.55;;;1.90;99.90;;;;;;7369758;19;20086;-66
2023/03/27 00:30:57;;;;;;;8.82;2.30;;;2.00;99.90;;;;;;7370681;19;20021;-69
2023/03/27 00:33:24;;;;;;;11.05;2.22;;;2.00;99.90;;;;;;7371038;19;20022;-69
2023/03/27 00:35:52;;;;;;;6.88;1.90;;;2.00;99.90;;;;;;7371103;19;20026;-69
2023/03/27 00:38:19;;;;;;;15.77;2.55;;;2.00;99.90;;;;;;7369004;19;20022;-69
2023/03/27 00:40:49;;;;;;;8.60;1.90;;;2.00;99.90;;;;;;7368403;19;20976;-69
2023/03/27 00:43:22;;;;;;;15.23;2.92;;;2.00;99.90;;;;;;7365636;19;21959;-69
2023/03/27 00:45:51;;;;;;;11.57;2.63;;;2.10;99.90;;;;;;7366338;19;20015;-69
2023/03/27 00:48:19;;;;;;;7.18;2.35;;;2.10;99.90;;;;;;7368904;19;20045;-69
2023/03/27 00:50:47;;;;;;;11.88;2.38;;;2.10;99.90;;;;;;7363327;19;20541;-69
2023/03/27 00:53:23;;;;;;;7.00;2.58;;;2.10;99.90;;;;;;7367556;19;20039;-69
2023/03/27 00:55:53;;;;;;;8.68;2.40;;;2.00;99.90;;;;;;7366092;19;20023;-69
2023/03/27 00:58:26;;;;;;;9.02;2.17;;;1.90;99.90;;;;;;7369854;19;20031;-69
2023/03/27 01:00:55;;;;;;;7.03;2.20;;;1.90;99.90;;;;;;7366837;19;20023;-69
2023/03/27 01:03:25;;;;;;;12.70;3.20;;;1.90;99.90;;;;;;7377288;19;20022;-69
2023/03/27 01:05:54;;;;;;;9.40;2.53;;;1.90;99.90;;;;;;7374877;19;20074;-69
2023/03/27 01:08:23;;;;;;;8.82;2.63;;;1.80;99.90;;;;;;7375870;19;20019;-69
2023/03/27 01:11:07;;;;;;;7.50;1.98;;;1.80;99.90;;;;;;7371569;19;20052;-69
2023/03/27 01:13:58;;;;;;;10.57;2.17;;;1.70;99.90;;;;;;7372651;19;20803;-69
2023/03/27 01:17:00;;;;;;;11.10;3.30;;;1.70;99.90;;;;;;7373376;19;20054;-69
2023/03/27 01:19:45;;;;;;;6.38;2.10;;;1.60;99.90;;;;;;7371849;19;20054;-69
2023/03/27 01:22:20;;;;;;;10.57;2.78;;;1.60;99.90;;;;;;7368659;19;20797;-69
2023/03/27 01:24:59;;;;;;;10.30;2.30;;;1.60;99.90;;;;;;7365385;19;20022;-69
2023/03/27 01:27:57;;;;;;;10.43;2.55;;;1.50;99.90;;;;;;7358581;19;20022;-69
2023/03/27 01:30:57;;;;;;;9.57;2.42;;;1.50;99.90;;;;;;7363850;19;20104;-69
2023/03/27 01:33:42;;;;;;;14.65;3.13;;;1.50;99.90;;;;;;7375728;19;20040;-66
2023/03/27 01:36:26;;;;;;;8.82;2.15;;;1.40;99.90;;;;;;7374139;19;20816;-67
2023/03/27 01:39:08;;;;;;;11.32;2.55;;;1.50;99.90;;;;;;7376863;19;20030;-66
2023/03/27 01:41:46;;;;;;;6.50;1.95;;;1.40;99.90;;;;;;7378221;19;20042;-66
2023/03/27 01:44:37;;;;;;;6.82;1.52;;;1.40;99.90;;;;;;7374905;19;20029;-66
2023/03/27 01:47:30;;;;;;;7.57;1.92;;;1.40;99.90;;;;;;7373431;19;20039;-69
2023/03/27 01:50:17;;;;;;;7.43;1.92;;;1.50;99.90;;;;;;7370917;19;20488;-69
2023/03/27 01:52:52;;;;;;;4.85;1.83;;;1.50;99.90;;;;;;7374763;19;20026;-69
2023/03/27 01:55:23;;;;;;;7.57;1.80;;;1.50;99.90;;;;;;7376878;19;20070;-69
2023/03/27 01:58:16;;;;;;;8.68;1.95;;;1.50;99.90;;;;;;7372752;19;20370;-69
2023/03/27 02:00:46;;;;;;;7.03;1.80;;;1.50;99.90;;;;;;7368471;19;20022;-69
2023/03/27 02:03:21;;;;;;;8.05;2.20;;;1.50;99.90;;;;;;7375478;19;20022;-67
2023/03/27 02:05:52;;;;;;;8.75;2.08;;;1.50;99.90;;;;;;7372570;19;20078;-66
2023/03/27 02:08:28;;;;;;;12.13;2.20;;;1.50;99.90;;;;;;7374948;19;20022;-66
2023/03/27 02:11:03;;;;;;;13.70;2.40;;;1.50;99.90;;;;;;7370054;19;20032;-66
2023/03/27 02:13:38;;;;;;;10.80;2.03;;;1.60;99.90;;;;;;7373842;19;20022;-66
2023/03/27 02:16:08;;;;;;;6.95;1.90;;;1.60;99.90;;;;;;7372679;19;20025;-67
2023/03/27 02:18:46;;;;;;;5.53;1.80;;;1.60;99.90;;;;;;7376363;19;20014;-67
2023/03/27 02:21:14;;;;;;;9.10;2.15;;;1.60;99.90;;;;;;7376856;19;20026;-66
2023/03/27 02:23:42;;;;;;;5.57;1.77;;;1.60;99.90;;;;;;7374509;19;20015;-69
2023/03/27 02:26:12;;;;;;;7.88;2.05;;;1.50;99.90;;;;;;7373161;19;20045;-70
2023/03/27 02:28:47;;;;;;;7.95;1.85;;;1.50;99.90;;;;;;7371811;19;20053;-69
2023/03/27 02:31:29;;;;;;;8.07;2.38;;;1.50;99.90;;;;;;7375694;19;20018;-69
2023/03/27 02:34:17;;;;;;;8.23;1.85;;;1.50;99.90;;;;;;7374769;19;20034;-69
2023/03/27 02:37:00;;;;;;;10.95;1.80;;;1.40;99.90;;;;;;7371415;19;20037;-69
2023/03/27 02:39:49;;;;;;;11.95;3.15;;;1.50;99.90;;;;;;7377584;19;20014;-69
2023/03/27 02:42:33;;;;;;;7.28;1.88;;;1.50;99.90;;;;;;7373598;19;20039;-69
2023/03/27 02:45:35;;;;;;;12.13;2.05;;;1.50;99.90;;;;;;7374614;19;20028;-69
2023/03/27 02:48:13;;;;;;;12.80;2.15;;;1.50;99.90;;;;;;7371868;19;20116;-69
2023/03/27 02:50:50;;;;;;;9.23;2.10;;;1.60;99.90;;;;;;7374070;19;20018;-66
2023/03/27 02:53:21;;;;;;;7.40;2.85;;;1.60;99.90;;;;;;7373978;19;20023;-66
2023/03/27 02:56:02;;;;;;;11.63;2.03;;;1.70;99.90;;;;;;7374867;19;20031;-69
2023/03/27 02:58:40;;;;;;;6.75;2.05;;;1.80;99.90;;;;;;7374912;19;20567;-70
2023/03/27 03:01:19;;;;;;;11.48;1.98;;;1.80;99.90;;;;;;7375521;19;20014;-69
2023/03/27 03:04:13;;;;;;;9.32;1.75;;;1.80;99.90;;;;;;7376084;19;20451;-69
2023/03/27 03:07:10;;;;;;;7.95;1.85;;;1.70;99.90;;;;;;7369452;19;20108;-70
2023/03/27 03:09:37;;;;;;;9.18;1.98;;;1.80;99.90;;;;;;7372500;19;20026;-69
2023/03/27 03:12:04;;;;;;;6.85;1.80;;;1.70;99.90;;;;;;7371940;19;20116;-66
2023/03/27 03:14:42;;;;;;;6.60;1.85;;;1.70;99.90;;;;;;7372632;19;20050;-66
2023/03/27 03:17:10;;;;;;;11.23;2.28;;;1.70;99.90;;;;;;7369782;19;20043;-67
2023/03/27 03:19:37;;;;;;;11.23;1.92;;;1.70;99.90;;;;;;7375113;19;20015;-69
2023/03/27 03:22:04;;;;;;;10.02;2.10;;;1.70;99.90;;;;;;7372426;19;20026;-69
2023/03/27 03:24:34;;;;;;;6.20;1.70;;;1.70;99.90;;;;;;7368525;19;20033;-70
2023/03/27 03:27:03;;;;;;;11.25;2.13;;;1.60;99.90;;;;;;7373525;19;20101;-69
2023/03/27 03:29:35;;;;;;;7.70;1.92;;;1.60;99.90;;;;;;7372463;19;20491;-69
2023/03/27 03:32:32;;;;;;;10.32;2.10;;;1.60;99.90;;;;;;7374494;19;20033;-69
2023/03/27 03:35:00;;;;;;;12.75;2.08;;;1.60;99.90;;;;;;7370182;19;20026;-69
2023/03/27 03:37:28;;;;;;;11.02;2.45;;;1.60;99.90;;;;;;7370510;19;20015;-69
2023/03/27 03:39:56;;;;;;;6.18;1.85;;;1.60;99.90;;;;;;7372422;19;20045;-70
2023/03/27 03:42:22;;;;;;;9.93;2.05;;;1.50;99.90;;;;;;7371859;19;20022;-69
2023/03/27 03:44:50;;;;;;;7.43;2.17;;;1.50;99.90;;;;;;7372284;19;20890;-69
2023/03/27 03:47:20;;;;;;;9.63;2.00;;;1.50;99.90;;;;;;7371918;19;20014;-69
2023/03/27 03:49:46;;;;;;;7.15;2.42;;;1.60;99.90;;;;;;7373083;19;20716;-66
2023/03/27 03:52:13;;;;;;;9.88;1.98;;;1.60;99.90;;;;;;7372472;19;20771;-67
2023/03/27 03:54:39;;;;;;;6.70;1.70;;;1.60;99.90;;;;;;7370287;19;20025;-66
2023/03/27 03:57:07;;;;;;;7.03;2.03;;;1.70;99.90;;;;;;7371259;19;20052;-67
2023/03/27 03:59:33;;;;;;;9.80;1.92;;;1.70;99.90;;;;;;7372256;19;20022;-66
2023/03/27 04:02:27;;;;;;;9.63;1.92;;;1.70;99.90;;;;;;7373099;19;20485;-66
2023/03/27 04:04:58;;;;;;;5.20;1.80;;;1.60;99.90;;;;;;7370735;19;20605;-67
2023/03/27 04:07:34;;;;;;;5.47;1.90;;;1.60;99.90;;;;;;7371359;19;20695;-69
2023/03/27 04:10:16;;;;;;;7.68;1.73;;;1.60;99.90;;;;;;7371428;19;20022;-66
2023/03/27 04:12:50;;;;;;;5.10;1.80;;;1.50;99.90;;;;;;7373794;19;20758;-66
2023/03/27 04:15:35;;;;;;;8.88;2.25;;;1.60;99.90;;;;;;7374386;19;20093;-66
2023/03/27 04:18:06;;;;;;;;;;;1.50;99.90;;;;;;7373496;19;20397;-69
2023/03/27 04:20:33;;;;;;;9.38;2.25;;;1.40;99.90;;;;;;7375164;19;20471;-70
2023/03/27 04:23:02;;;;;;;7.72;1.70;;;1.50;99.90;;;;;;7372649;19;20065;-67
2023/03/27 04:25:36;;;;;;;7.60;2.05;;;1.40;99.90;;;;;;7367620;19;20015;-69
2023/03/27 04:28:03;;;;;;;6.03;1.60;;;1.40;99.90;;;;;;7361988;19;20040;-66
2023/03/27 04:30:35;;;;;;;7.03;1.95;;;1.40;99.90;;;;;;7368275;19;20106;-70
2023/03/27 04:33:23;;;;;;;8.35;2.20;;;1.40;99.90;;;;;;7372158;19;20647;-67
2023/03/27 04:36:01;;;;;;;8.32;2.08;;;1.30;99.90;;;;;;7373216;19;20014;-69
2023/03/27 04:38:35;;;;;;;9.52;1.80;;;1.40;99.90;;;;;;7380243;19;20378;-67
2023/03/27 04:41:02;;;;;;;7.78;1.80;;;1.40;99.90;;;;;;7379884;19;20018;-70
2023/03/27 04:43:38;;;;;;;10.05;2.25;;;1.40;99.90;;;;;;7380901;19;20456;-66
2023/03/27 04:46:07;;;;;;;7.65;2.08;;;1.30;99.90;;;;;;7376264;19;20014;-66
2023/03/27 04:48:37;;;;;;;6.30;1.90;;;1.40;99.90;;;;;;7375379;19;20038;-66
2023/03/27 04:51:14;;;;;;;6.60;2.13;;;1.30;99.90;;;;;;7366500;19;20022;-66
2023/03/27 04:53:42;;;;;;;7.45;1.88;;;1.30;99.90;;;;;;7374099;19;20022;-66
2023/03/27 04:56:10;;;;;;;12.07;2.25;;;1.40;99.90;;;;;;7372646;19;20482;-66
2023/03/27 04:58:45;;;;;;;13.93;1.73;;;1.40;99.90;;;;;;7374368;19;20022;-66
2023/03/27 05:01:13;;;;;;;6.60;1.88;;;1.40;99.90;;;;;;7371965;19;20069;-66
2023/03/27 05:04:06;;;;;;;;;;;1.40;99.90;;;;;;7373219;19;20034;-66
2023/03/27 05:06:39;;;;;;;6.50;1.70;;;1.40;99.90;;;;;;7375611;19;19948;-66
2023/03/27 05:09:10;;;;;;;5.27;1.60;;;1.40;99.90;;;;;;7374800;19;20046;-67
2023/03/27 05:11:40;;;;;;;13.90;2.05;;;1.40;99.90;;;;;;7375477;19;20285;-69
2023/03/27 05:14:08;;;;;;;3.83;1.60;;;1.40;99.90;;;;;;7375020;19;20014;-69
2023/03/27 05:16:36;;;;;;;5.75;1.80;;;1.40;99.90;;;;;;7374757;19;20014;-69
2023/03/27 05:19:05;;;;;;;7.53;2.42;;;1.30;99.90;;;;;;7371780;19;20723;-69
2023/03/27 05:21:42;;;;;;;8.07;2.10;;;1.40;99.90;;;;;;7373077;19;20055;-66
2023/03/27 05:24:10;;;;;;;9.82;2.00;;;1.30;99.90;;;;;;7375090;19;20014;-66
2023/03/27 05:26:38;;;;;;;5.72;2.05;;;1.40;99.90;;;;;;7374478;19;20625;-66
2023/03/27 05:29:09;;;;;;;5.65;2.67;;;1.30;99.90;;;;;;7375780;19;20022;-66
2023/03/27 05:31:39;;;;;;;6.80;1.95;;;1.30;99.90;;;;;;7377632;19;20022;-66
2023/03/27 05:34:33;;;;;;;6.75;2.38;;;1.30;99.90;;;;;;7378215;19;20021;-66
2023/03/27 05:37:04;;;;;;;5.45;1.83;;;1.40;99.90;;;;;;7375619;19;20722;-66
2023/03/27 05:39:32;;;;;;;10.85;2.22;;;1.30;99.90;;;;;;7374405;19;20455;-66
2023/03/27 05:41:58;;;;;;;8.13;2.08;;;1.30;99.90;;;;;;7372063;19;20018;-69
2023/03/27 05:44:26;;;;;;;9.43;3.65;;;1.40;99.90;;;;;;7374749;19;20040;-70
2023/03/27 05:46:52;;;;;;;6.03;2.17;;;1.40;99.90;;;;;;7368457;19;20050;-70
2023/03/27 05:49:26;;;;;;;12.02;2.63;;;1.30;99.90;;;;;;7375718;19;20545;-70
2023/03/27 05:51:59;;;;;;;9.65;2.58;;;1.30;99.90;;;;;;7371994;19;20050;-69
2023/03/27 05:54:28;;;;;;;11.00;2.60;;;1.40;99.90;;;;;;7376960;19;20553;-67
2023/03/27 05:57:00;;;;;;;5.57;2.35;;;1.40;99.90;;;;;;7372628;19;20022;-66
2023/03/27 05:59:26;;;;;;;11.63;2.40;;;1.30;99.90;;;;;;7375147;19;20018;-70
2023/03/27 06:02:02;;;;;;;8.65;2.33;;;1.40;99.90;;;;;;7370672;19;20510;-69
2023/03/27 06:04:41;;;;;;;9.32;2.72;;;1.50;99.90;;;;;;7375266;19;20686;-69
2023/03/27 06:07:19;;;;;;;13.10;2.72;;;1.60;99.90;;;;;;7374312;19;20011;-68
2023/03/27 06:09:45;;;;;;;8.45;2.10;;;1.70;99.90;;;;;;7370793;19;20025;-67
2023/03/27 06:12:30;;;;;;;11.07;2.80;;;1.70;99.90;;;;;;7372694;19;20569;-69
2023/03/27 06:15:08;;;;;;;7.90;2.50;;;1.90;99.90;;;;;;7374882;19;20018;-70
2023/03/27 06:17:41;;;;;;;7.38;2.80;;;2.00;99.90;;;;;;7373941;19;20029;-70
2023/03/27 06:20:11;;;;;;;11.95;2.47;;;2.20;99.90;;;;;;7374981;19;20024;-66
2023/03/27 06:22:43;;;;;;;7.97;2.53;;;2.30;99.90;;;;;;7373462;19;20035;-66
2023/03/27 06:25:10;;;;;;;14.77;4.22;;;2.40;99.90;;;;;;7373148;19;20090;-66
2023/03/27 06:27:38;;;;;;;8.90;4.18;;;2.40;99.90;;;;;;7375275;19;20007;-70
2023/03/27 06:30:06;;;;;;;5.90;1.40;;;2.30;99.90;;;;;;7370726;19;20081;-70
2023/03/27 06:32:35;;;;;;;6.05;1.35;;;2.20;99.90;;;;;;7373150;19;20516;-70
2023/03/27 06:35:07;;;;;;;5.47;1.45;;;2.30;99.90;;;;;;7373473;19;20081;-71
2023/03/27 06:37:57;;;;;;;4.78;1.40;;;2.30;99.90;;;;;;7373214;19;20019;-70
2023/03/27 06:40:26;;;;;;;5.82;2.03;;;2.40;99.90;;;;;;7372278;19;20054;-71
2023/03/27 06:43:06;;;;;;;5.03;1.75;;;2.40;99.90;;;;;;7372712;19;20074;-71
2023/03/27 06:45:48;;;;;;;4.07;1.20;;;2.60;99.90;;;;;;7374479;19;20048;-71
2023/03/27 06:48:35;;;;;;;7.47;1.27;;;2.70;99.90;;;;;;7375264;19;20030;-71
2023/03/27 06:51:05;;;;;;;9.30;1.25;;;2.90;99.90;;;;;;7371136;19;20474;-71
2023/03/27 06:53:45;;;;;;;7.30;1.23;;;2.90;99.90;;;;;;7374054;19;20014;-71
2023/03/27 06:56:12;;;;;;;5.55;1.55;;;3.00;99.90;;;;;;7374867;19;20786;-71
2023/03/27 06:59:12;;;;;;;4.72;1.15;;;3.10;99.90;;;;;;7369482;19;20023;-70
2023/03/27 07:01:38;;;;;;;5.45;1.30;;;3.30;99.90;;;;;;7366713;19;20045;-69
2023/03/27 07:04:28;;;;;;;7.05;1.40;;;3.30;99.90;;;;;;7372536;19;20462;-70
2023/03/27 07:07:05;;;;;;;8.25;1.20;;;3.50;99.90;;;;;;7372635;19;20011;-69
2023/03/27 07:09:45;;;;;;;5.78;1.35;;;3.60;99.90;;;;;;7374187;19;20014;-70
2023/03/27 07:12:14;;;;;;;6.07;1.55;;;3.90;99.90;;;;;;7371385;19;20019;-67
2023/03/27 07:14:43;;;;;;;6.50;1.58;;;4.00;99.90;;;;;;7372964;19;20063;-67
2023/03/27 07:17:12;;;;;;;7.10;2.13;;;4.20;99.90;;;;;;7371072;19;20086;-67
2023/03/27 07:19:57;;;;;;;6.95;1.70;;;4.40;99.90;;;;;;7372248;19;20023;-67
2023/03/27 07:22:26;;;;;;;8.63;1.58;;;4.50;99.90;;;;;;7365773;19;20056;-71
2023/03/27 07:24:53;;;;;;;6.45;1.95;;;4.90;99.90;;;;;;7366525;19;20759;-67
2023/03/27 07:27:23;;;;;;;7.50;1.50;;;5.00;99.90;;;;;;7367745;19;20636;-66
2023/03/27 07:29:50;;;;;;;4.00;1.20;;;5.30;99.90;;;;;;7364799;19;20032;-67
2023/03/27 07:32:20;;;;;;;7.72;1.60;;;5.60;99.90;;;;;;7365598;19;20039;-67
2023/03/27 07:34:50;;;;;;;5.47;1.30;;;5.90;99.90;;;;;;7366928;19;20462;-67
2023/03/27 07:37:37;;;;;;;5.97;1.77;;;6.10;99.90;;;;;;7366856;19;20022;-67
2023/03/27 07:40:25;;;;;;;5.43;1.42;;;6.40;99.90;;;;;;7368842;19;20038;-67
2023/03/27 07:43:17;;;;;;;5.65;1.40;;;6.60;99.90;;;;;;7365155;19;20633;-67
2023/03/27 07:45:44;;;;;;;7.95;1.73;;;6.70;99.90;;;;;;7368914;19;21229;-68
2023/03/27 07:48:15;;;;;;;8.77;1.85;;;6.90;99.90;;;;;;7365258;19;20416;-67
2023/03/27 07:50:43;;;;;;;5.60;1.63;;;7.10;99.90;;;;;;7367260;19;20095;-67
2023/03/27 07:53:14;;;;;;;5.65;1.60;;;7.00;99.90;;;;;;7366117;19;20019;-66
2023/03/27 07:55:47;;;;;;;7.50;1.70;;;7.40;99.90;;;;;;7361335;19;20021;-66
2023/03/27 07:58:16;;;;;;;10.98;2.03;;;7.50;99.90;;;;;;7367154;19;20038;-65
2023/03/27 08:00:43;;;;;;;8.38;1.92;;;7.70;99.90;;;;;;7366248;19;20025;-66
2023/03/27 08:03:13;;;;;;;8.70;2.20;;;8.10;99.90;;;;;;7366788;19;20018;-66
2023/03/27 08:05:51;;;;;;;5.72;1.85;;;8.30;99.90;;;;;;7366459;19;20066;-66
2023/03/27 08:08:19;;;;;;;8.38;1.70;;;8.60;99.90;;;;;;7368830;19;20031;-66
2023/03/27 08:11:03;;;;;;;7.85;2.38;;;8.60;99.90;;;;;;7373482;19;20568;-66
2023/03/27 08:13:37;;;;;;;9.80;2.45;;;8.80;99.90;;;;;;7381598;19;20029;-65
2023/03/27 08:16:10;;;;;;;9.63;1.85;;;8.50;99.90;;;;;;7377356;19;20021;-66
2023/03/27 08:18:36;;;;;;;8.02;1.60;;;7.30;99.90;;;;;;7383093;19;20014;-66
2023/03/27 08:21:07;;;;;;;6.95;1.98;;;6.70;99.90;;;;;;7376503;19;20018;-65
2023/03/27 08:23:36;;;;;;;6.53;1.63;;;5.90;99.90;;;;;;7378966;19;20520;-65
2023/03/27 08:26:41;;;;;;;6.18;1.38;;;5.40;99.90;;;;;;7381576;19;20010;-67
2023/03/27 08:29:11;;;;;;;3.13;1.20;;;4.70;99.90;;;;;;7369279;19;20015;-65
2023/03/27 08:31:39;;;;;;;6.03;1.38;;;4.40;99.90;;;;;;7382006;19;20014;-64
2023/03/27 08:34:12;;;;;;;6.38;1.48;;;4.20;99.90;;;;;;7375759;19;20039;-65
2023/03/27 08:36:43;;;;;;;6.95;1.23;;;4.10;99.90;;;;;;7380414;19;20279;-64
2023/03/27 08:39:10;;;;;;;6.07;1.77;;;4.10;99.90;;;;;;7378630;19;20014;-65
2023/03/27 08:41:54;;;;;;;5.53;1.40;;;4.60;99.90;;;;;;7378787;19;20631;-64
2023/03/27 08:44:33;;;;;;;6.07;1.67;;;5.10;99.90;;;;;;7382069;19;20018;-64
2023/03/27 08:47:22;;;;;;;6.20;1.25;;;6.00;99.90;;;;;;7378844;19;20799;-64
2023/03/27 08:50:01;;;;;;;4.47;1.30;;;7.10;99.90;;;;;;7381177;19;20022;-64
2023/03/27 08:52:49;;;;;;;4.65;1.35;;;7.80;99.90;;;;;;7377257;19;20022;-65
2023/03/27 08:55:33;;;;;;;7.85;1.27;;;8.30;99.90;;;;;;7384087;19;20018;-65
2023/03/27 08:58:20;;;;;;;3.47;1.20;;;8.60;99.90;;;;;;7379922;19;20953;-65
2023/03/27 09:01:19;;;;;;;6.30;1.20;;;9.00;99.90;;;;;;7381537;19;20018;-65
2023/03/27 09:04:12;;;;;;;4.70;1.17;;;9.70;99.90;;;;;;7381474;19;20087;-65
2023/03/27 09:06:47;;;;;;;5.20;1.45;;;9.80;99.90;;;;;;7382276;19;20007;-65
2023/03/27 09:09:31;;;;;;;9.75;2.60;;;10.60;99.90;;;;;;7379430;19;20182;-67
2023/03/27 09:12:22;;;;;;;4.78;1.52;;;10.90;99.90;;;;;;7379081;19;20407;-66
2023/03/27 09:15:20;;;;;;;9.57;2.25;;;10.90;99.90;;;;;;7382675;19;20018;-66
2023/03/27 09:17:57;;;;;;;7.20;1.65;;;11.60;99.90;;;;;;7379055;19;20022;-66
2023/03/27 09:20:44;;;;;;;10.10;1.70;;;11.20;99.90;;;;;;7381627;19;20608;-67
2023/03/27 09:23:25;;;;;;;9.95;2.25;;;11.40;99.90;;;;;;7375276;19;20569;-66
2023/03/27 09:26:27;;;;;;;5.28;0.88;;;11.00;99.90;;;;;;7374267;19;20038;-66
2023/03/27 09:29:18;;;;;;;4.38;1.13;;;9.20;99.90;;;;;;7374954;19;20371;-66
2023/03/27 09:31:49;;;;;;;3.88;0.90;;;7.80;99.90;;;;;;7376098;19;20022;-67
2023/03/27 09:34:27;;;;;;;3.53;0.88;;;7.30;99.90;;;;;;7371343;19;20029;-66
2023/03/27 09:36:54;;;;;;;3.05;0.85;;;7.50;99.90;;;;;;7371707;19;20082;-66
2023/03/27 09:39:31;;;;;;;6.60;1.10;;;8.40;99.90;;;;;;7372568;19;20007;-66
2023/03/27 09:42:18;;;;;;;;;;;9.30;99.90;;;;;;7370166;19;20477;-66
2023/03/27 09:44:55;;;;;;;2.78;0.70;;;10.00;99.90;;;;;;7368568;19;20268;-66
2023/03/27 09:47:30;;;;;;;3.50;0.90;;;10.30;99.90;;;;;;7373318;19;20358;-66
2023/03/27 09:50:15;;;;;;;4.07;0.90;;;10.50;99.90;;;;;;7370764;19;20830;-66
2023/03/27 09:53:19;;;;;;;4.15;1.10;;;10.70;99.90;;;;;;7373460;19;20015;-66
2023/03/27 09:56:02;;;;;;;2.88;1.00;;;11.20;99.90;;;;;;7372767;19;20589;-66
2023/03/27 09:58:42;;;;;;;4.60;1.50;;;12.10;97.90;;;;;;7369091;19;20019;-66
2023/03/27 10:01:18;;;;;;;5.38;1.25;;;11.50;89.80;;;;;;7370625;19;20052;-66
2023/03/27 10:03:52;;;;;;;5.45;1.95;;;12.10;94.60;;;;;;7367236;19;20546;-67
2023/03/27 10:06:55;;;;;;;4.70;1.17;;;12.60;92.10;;;;;;7371664;19;20026;-67
2023/03/27 10:09:31;;;;;;;6.05;2.40;;;11.90;84.60;;;;;;7372204;19;20025;-67
2023/03/27 10:12:17;;;;;;;4.72;1.30;;;12.70;99.30;;;;;;7369817;19;20015;-67
2023/03/27 10:14:48;;;;;;;7.22;1.90;;;12.30;74.30;;;;;;7371231;19;20026;-67
2023/03/27 10:17:30;;;;;;;8.93;1.83;;;12.70;96.70;;;;;;7372057;19;20061;-67
2023/03/27 10:20:18;;;;;;;6.70;1.70;;;12.80;77.50;;;;;;7371495;19;20030;-67
2023/03/27 10:22:57;;;;;;;7.60;2.22;;;12.00;83.10;;;;;;7371153;19;20094;-67
2023/03/27 10:25:33;;;;;;;4.85;1.10;;;11.60;80.60;;;;;;7370613;19;20038;-67
2023/03/27 10:28:21;;;;;;;5.03;2.10;;;11.90;87.00;;;;;;7372109;19;20785;-67
2023/03/27 10:31:31;;;;;;;4.75;1.50;;;12.30;92.80;;;;;;7371279;19;20010;-67
2023/03/27 10:34:38;;;;;;;5.40;1.50;;;11.40;90.00;;;;;;7367282;19;20018;-66
2023/03/27 10:37:40;;;;;;;10.48;2.65;;;11.10;93.30;;;;;;7374093;19;20056;-67
2023/03/27 10:40:50;;;;;;;5.78;1.40;;;11.80;95.80;;;;;;7375026;19;20091;-67
2023/03/27 10:43:35;;;;;;;5.82;2.20;;;11.70;78.30;;;;;;7371689;19;20011;-67
2023/03/27 10:46:08;;;;;;;5.57;2.47;;;10.80;72.90;;;;;;7372136;19;20022;-67
2023/03/27 10:48:50;;;;;;;5.35;1.38;;;11.60;78.20;;;;;;7373403;19;20026;-66
2023/03/27 10:51:44;;;;;;;6.45;1.60;;;12.00;68.40;;;;;;7375120;19;20090;-65
2023/03/27 10:54:40;;;;;;;5.00;1.30;;;12.30;66.40;;;;;;7371236;19;20015;-66
2023/03/27 10:57:20;;;;;;;5.15;1.45;;;11.80;64.80;;;;;;7368794;19;20026;-65
2023/03/27 10:59:51;;;;;;;6.55;1.15;;;11.90;65.50;;;;;;7371644;19;20011;-65
2023/03/27 11:02:53;;;;;;;4.40;1.13;;;11.50;69.70;;;;;;7369470;19;20018;-67
2023/03/27 11:05:32;;;;;;;3.80;1.35;;;11.70;68.20;;;;;;7371252;19;20802;-66
2023/03/27 11:08:45;;;;;;;6.68;1.63;;;10.90;70.90;;;;;;7369876;19;20110;-66
2023/03/27 11:11:18;;;;;;;7.68;1.98;;;11.30;68.40;;;;;;7367769;19;20010;-66
2023/03/27 11:13:48;;;;;;;4.05;1.30;;;11.80;71.20;;;;;;7372125;19;20031;-66
2023/03/27 11:16:35;;;;;;;3.92;1.20;;;11.10;68.70;;;;;;7370892;19;20018;-66
2023/03/27 11:19:35;;;;;;;6.20;2.53;;;10.80;66.30;;;;;;7369610;19;20022;-66
2023/03/27 11:22:31;;;;;;;4.35;1.45;;;12.30;64.80;;;;;;7370938;19;20042;-66
2023/03/27 11:25:28;;;;;;;5.55;1.83;;;13.50;64.40;;;;;;7369514;19;20038;-66
2023/03/27 11:28:06;;;;;;;2.92;1.60;;;13.40;58.60;;;;;;7369931;19;20036;-66
2023/03/27 11:30:50;;;;;;;6.45;1.90;;;12.30;60.00;;;;;;7371050;19;20014;-66
2023/03/27 11:33:37;;;;;;;6.50;2.05;;;11.20;60.20;;;;;;7371425;19;20482;-66
2023/03/27 11:36:10;;;;;;;6.15;1.40;;;12.30;63.00;;;;;;7370606;19;20014;-66
2023/03/27 11:38:56;;;;;;;6.13;1.20;;;12.60;61.60;;;;;;7371209;19;20063;-65
2023/03/27 11:41:23;;;;;;;4.68;1.27;;;14.00;61.30;;;;;;7372851;19;20062;-66
2023/03/27 11:43:53;;;;;;;8.27;3.17;;;14.20;56.60;;;;;;7368360;19;20022;-66
2023/03/27 11:46:56;;;;;;;4.65;2.17;;;13.50;55.60;;;;;;7371260;19;20742;-66
2023/03/27 11:49:31;;;;;;;3.50;1.02;;;10.90;63.40;;;;;;7368352;19;20023;-65
2023/03/27 11:52:22;;;;;;;4.28;0.93;;;9.20;99.90;;;;;;7368598;19;20029;-65
2023/03/27 11:55:05;;;;;;;12.60;7.05;;;8.00;99.90;;;;;;7370561;19;20568;-64
2023/03/27 11:58:25;;;;;;;6.85;1.10;;;7.90;99.90;;;;;;7369351;19;20482;-65
2023/03/27 12:01:11;;;;;;;7.38;1.05;;;9.20;99.90;;;;;;7366427;19;20022;-65
2023/03/27 12:04:04;;;;;;;3.15;0.60;;;11.10;99.90;;;;;;7369643;19;20027;-66
2023/03/27 12:07:10;;;;;;;2.22;0.70;;;11.90;99.90;;;;;;7367436;19;20018;-66
2023/03/27 12:10:02;;;;;;;6.50;1.15;;;12.70;88.50;;;;;;7369874;19;20528;-66
2023/03/27 12:13:16;;;;;;;5.15;1.20;;;13.00;72.20;;;;;;7366118;19;20026;-67
2023/03/27 12:16:02;;;;;;;5.15;1.13;;;13.10;73.00;;;;;;7368517;19;20049;-66
2023/03/27 12:19:30;;;;;;;4.80;1.88;;;14.00;70.10;;;;;;7367848;19;20018;-66
2023/03/27 12:22:36;;;;;;;2.90;0.90;;;14.00;64.40;;;;;;7369063;19;20023;-66
2023/03/27 12:25:20;;;;;;;7.80;3.38;;;13.10;65.50;;;;;;7369105;19;20018;-65
2023/03/27 12:28:11;;;;;;;7.18;1.65;;;12.30;79.40;;;;;;7367679;19;20014;-66
2023/03/27 12:30:58;;;;;;;7.82;1.23;;;11.00;99.90;;;;;;7364222;19;20597;-66
2023/03/27 12:33:45;;;;;;;6.50;1.08;;;10.40;99.90;;;;;;7368549;19;20392;-67
2023/03/27 12:36:18;;;;;;;4.97;1.45;;;9.50;99.90;;;;;;7366114;19;20015;-64
2023/03/27 12:38:46;;;;;;;7.15;1.05;;;8.80;99.90;;;;;;7369882;19;20193;-65
2023/03/27 12:41:24;;;;;;;3.05;0.73;;;8.50;99.90;;;;;;7368923;19;20617;-64
2023/03/27 12:44:05;;;;;;;2.95;0.82;;;9.20;99.90;;;;;;7369317;19;20022;-65
2023/03/27 12:47:22;;;;;;;4.80;1.27;;;10.60;99.90;;;;;;7368126;19;20030;-66
2023/03/27 12:49:58;;;;;;;7.18;1.45;;;11.30;99.90;;;;;;7368792;19;20042;-66
2023/03/27 12:52:30;;;;;;;7.03;1.52;;;11.00;99.90;;;;;;7367453;19;20037;-65
2023/03/27 12:55:30;;;;;;;9.52;1.65;;;9.90;99.90;;;;;;7366564;19;20652;-66
2023/03/27 12:57:58;;;;;;;;;;;9.50;99.90;;;;;;7375062;19;20042;-66
2023/03/27 13:00:40;;;;;;;5.88;1.40;;;9.30;99.90;;;;;;7374709;19;19918;-66
2023/03/27 13:03:21;;;;;;;12.77;4.50;;;9.70;99.90;;;;;;7374041;19;20011;-66
2023/03/27 13:06:17;;;;;;;9.95;1.98;;;9.60;99.90;;;;;;7375585;19;20078;-66
2023/03/27 13:09:22;;;;;;;8.20;2.75;;;9.50;99.90;;;;;;7373697;19;20026;-66
2023/03/27 13:12:15;;;;;;;5.32;1.30;;;9.10;95.00;;;;;;7375082;19;20010;-66
2023/03/27 13:15:05;;;;;;;5.80;1.10;;;8.90;92.80;;;;;;7378090;19;20589;-66
2023/03/27 13:17:55;;;;;;;5.25;1.75;;;9.00;99.90;;;;;;7376923;19;20068;-65
2023/03/27 13:20:53;;;;;;;11.18;4.88;;;9.90;80.10;;;;;;7377237;19;20019;-66
2023/03/27 13:23:32;;;;;;;6.95;1.48;;;10.90;83.10;;;;;;7377660;19;20028;-66
2023/03/27 13:26:33;;;;;;;9.35;2.85;;;11.00;73.00;;;;;;7374875;19;20057;-66
2023/03/27 13:29:01;;;;;;;7.68;1.63;;;11.80;66.00;;;;;;7376545;19;20098;-65
2023/03/27 13:31:44;;;;;;;9.13;2.00;;;11.00;64.70;;;;;;7374874;19;20120;-66
2023/03/27 13:34:41;;;;;;;6.53;1.90;;;9.80;71.90;;;;;;7375972;19;20054;-66
2023/03/27 13:37:12;;;;;;;9.32;1.63;;;8.90;99.90;;;;;;7374516;19;20019;-65
2023/03/27 13:39:58;;;;;;;7.80;1.55;;;9.00;99.90;;;;;;7374578;19;20023;-65
2023/03/27 13:42:37;;;;;;;5.85;1.65;;;9.50;99.90;;;;;;7375517;19;20030;-66
2023/03/27 13:45:35;;;;;;;9.90;1.40;;;10.20;99.90;;;;;;7374830;19;20023;-66
2023/03/27 13:48:54;;;;;;;9.75;2.22;;;11.00;99.90;;;;;;7371099;19;20059;-66
2023/03/27 13:51:46;;;;;;;12.82;3.60;;;11.80;90.20;;;;;;7371617;19;20418;-65
2023/03/27 13:54:31;;;;;;;5.10;1.60;;;12.20;82.60;;;;;;7372417;19;20023;-66